Time;durP1;ratioP1;P1;durP2;ratioP2;P2;SDS_P1;SDS_P2;PMS_P1;PMS_P2;Temp;Humidity;BMP_temperature;BMP_pressure;BME280_temperature;BME280_humidity;BME280_pressure;Samples;Min_cycle;Max_cycle;Signal;HPM_P1;HPM_P2
2023/12/16 00:00:07;;;;;;;12.70;5.55;;;;;;;3.94;100.00;100530.91;6098243;19;20328;-72
2023/12/16 00:02:07;;;;;;;11.52;5.57;;;;;;;3.97;100.00;100520.47;6100961;19;20305;-72
2023/12/16 00:04:08;;;;;;;9.73;5.22;;;;;;;3.97;100.00;100525.97;6101163;19;20007;-72
2023/12/16 00:06:08;;;;;;;13.85;5.70;;;;;;;4.00;100.00;100520.75;6100129;19;20597;-72
2023/12/16 00:08:09;;;;;;;11.90;5.05;;;;;;;3.99;100.00;100524.59;6100144;19;20010;-72
2023/12/16 00:10:09;;;;;;;10.25;5.63;;;;;;;4.00;100.00;100518.00;6100330;19;20023;-72
2023/12/16 00:12:10;;;;;;;12.85;4.93;;;;;;;4.00;100.00;100517.19;6100011;19;20006;-72
2023/12/16 00:14:10;;;;;;;12.52;5.30;;;;;;;3.99;100.00;100529.25;6101109;19;20003;-72
2023/12/16 00:16:10;;;;;;;12.73;5.45;;;;;;;3.97;100.00;100534.19;6100175;19;20363;-72
2023/12/16 00:18:11;;;;;;;11.18;5.97;;;;;;;3.99;100.00;100530.06;6100791;19;20763;-72
2023/12/16 00:20:11;;;;;;;9.95;5.13;;;;;;;4.07;100.00;100536.88;6099788;19;20509;-72
2023/12/16 00:22:12;;;;;;;13.60;6.53;;;;;;;4.09;100.00;100535.47;6100224;19;20348;-72
2023/12/16 00:24:12;;;;;;;15.00;6.15;;;;;;;4.05;100.00;100545.34;6100463;19;20070;-72
2023/12/16 00:26:13;;;;;;;11.63;5.47;;;;;;;4.03;100.00;100552.22;6100236;19;20006;-72
2023/12/16 00:28:13;;;;;;;11.02;5.68;;;;;;;4.03;100.00;100561.25;6100454;19;20007;-72
2023/12/16 00:30:13;;;;;;;10.00;5.50;;;;;;;4.03;100.00;100557.69;6100156;19;20551;-72
2023/12/16 00:32:14;;;;;;;11.27;5.82;;;;;;;4.02;100.00;100561.53;6101146;19;19998;-72
2023/12/16 00:34:15;;;;;;;10.98;6.28;;;;;;;4.05;100.00;100569.19;6099094;19;19998;-72
2023/12/16 00:36:15;;;;;;;12.45;5.95;;;;;;;4.04;100.00;100568.38;6099666;19;20092;-72
2023/12/16 00:38:15;;;;;;;13.63;6.15;;;;;;;4.03;100.00;100571.41;6100627;19;19999;-72
2023/12/16 00:40:15;;;;;;;13.50;6.63;;;;;;;4.00;100.00;100569.22;6099418;19;20017;-72
2023/12/16 00:42:16;;;;;;;9.70;5.95;;;;;;;4.00;100.00;100575.53;6100465;19;20002;-72
2023/12/16 00:44:16;;;;;;;15.50;6.00;;;;;;;3.99;100.00;100579.38;6100211;19;20007;-72
2023/12/16 00:46:17;;;;;;;11.60;5.95;;;;;;;3.95;100.00;100584.59;6100242;19;20007;-72
2023/12/16 00:48:17;;;;;;;15.38;7.55;;;;;;;3.94;100.00;100593.09;6100872;19;20011;-72
2023/12/16 00:50:17;;;;;;;11.82;6.15;;;;;;;3.88;100.00;100592.28;6097619;19;20007;-72
2023/12/16 00:52:18;;;;;;;13.00;6.45;;;;;;;3.83;100.00;100597.00;6100723;19;20002;-72
2023/12/16 00:54:18;;;;;;;12.95;6.00;;;;;;;3.86;100.00;100596.41;6099237;19;20075;-72
2023/12/16 00:56:18;;;;;;;11.98;6.35;;;;;;;3.85;100.00;100603.00;6100599;19;20005;-72
2023/12/16 00:58:19;;;;;;;12.40;6.57;;;;;;;3.84;100.00;100599.44;6099726;19;19999;-72
2023/12/16 01:00:19;;;;;;;12.52;6.07;;;;;;;3.82;100.00;100598.91;6100212;19;20002;-72
2023/12/16 01:02:19;;;;;;;12.27;5.97;;;;;;;3.83;100.00;100589.59;6099642;19;19999;-72
2023/12/16 01:04:20;;;;;;;13.43;6.20;;;;;;;3.84;100.00;100593.97;6099118;19;20019;-72
2023/12/16 01:06:20;;;;;;;12.95;7.43;;;;;;;3.82;100.00;100590.69;6099070;19;27145;-72
2023/12/16 01:08:20;;;;;;;11.77;7.18;;;;;;;3.84;100.00;100590.41;6099780;19;20022;-72
2023/12/16 01:10:21;;;;;;;13.48;5.88;;;;;;;3.82;100.00;100590.69;6098777;19;20026;-72
2023/12/16 01:12:21;;;;;;;13.68;6.43;;;;;;;3.87;100.00;100593.38;6100420;19;20037;-72
2023/12/16 01:14:21;;;;;;;14.43;6.13;;;;;;;3.86;100.00;100585.47;6098169;19;20006;-72
2023/12/16 01:16:22;;;;;;;9.80;6.40;;;;;;;3.86;100.00;100585.47;6100259;19;20568;-72
2023/12/16 01:18:23;;;;;;;16.45;6.03;;;;;;;3.93;100.00;100578.56;6099970;19;20010;-72
2023/12/16 01:20:24;;;;;;;15.00;7.28;;;;;;;3.96;100.00;100582.66;6099348;19;20003;-72
2023/12/16 01:22:24;;;;;;;11.35;6.15;;;;;;;4.04;100.00;100590.28;6100579;19;20102;-72
2023/12/16 01:24:24;;;;;;;12.95;6.57;;;;;;;4.07;100.00;100587.00;6099071;19;20351;-72
2023/12/16 01:26:25;;;;;;;14.18;6.50;;;;;;;4.03;100.00;100585.09;6099968;19;20026;-72
2023/12/16 01:28:25;;;;;;;13.38;6.65;;;;;;;3.98;100.00;100587.88;6100728;19;20101;-72
2023/12/16 01:30:26;;;;;;;11.38;6.72;;;;;;;3.93;100.00;100584.06;6099083;19;20009;-72
2023/12/16 01:32:26;;;;;;;13.15;7.03;;;;;;;3.93;100.00;100594.19;6099417;19;20235;-72
2023/12/16 01:34:26;;;;;;;13.60;6.25;;;;;;;3.97;100.00;100589.78;6099058;19;20018;-72
2023/12/16 01:36:27;;;;;;;13.30;7.07;;;;;;;3.98;100.00;100593.34;6099940;19;20328;-72
2023/12/16 01:38:27;;;;;;;11.25;6.70;;;;;;;4.00;100.00;100591.97;6100506;19;20018;-72
2023/12/16 01:40:27;;;;;;;15.38;6.65;;;;;;;4.02;100.00;100584.28;6098531;19;20776;-72
2023/12/16 01:42:28;;;;;;;15.68;7.10;;;;;;;4.04;100.00;100590.28;6099469;19;20045;-72
2023/12/16 01:44:29;;;;;;;12.70;6.75;;;;;;;4.09;100.00;100582.03;6099395;19;20022;-72
2023/12/16 01:46:32;;;;;;;16.30;7.10;;;;;;;4.07;100.00;100581.50;6099760;19;20017;-72
2023/12/16 01:48:34;;;;;;;10.07;6.00;;;;;;;4.00;100.00;100572.78;6101813;19;20402;-72
2023/12/16 01:50:34;;;;;;;14.50;7.13;;;;;;;4.03;100.00;100574.13;6105461;19;20528;-72
2023/12/16 01:52:35;;;;;;;13.32;6.88;;;;;;;4.06;100.00;100574.41;6104960;19;20477;-72
2023/12/16 01:54:36;;;;;;;14.95;6.25;;;;;;;4.00;100.00;100574.72;6104651;19;20023;-72
2023/12/16 01:56:37;;;;;;;13.90;6.82;;;;;;;3.98;100.00;100561.31;6105107;19;20594;-72
2023/12/16 01:58:39;;;;;;;14.15;7.00;;;;;;;4.02;100.00;100559.63;6105174;19;19998;-72
2023/12/16 02:00:40;;;;;;;14.27;6.95;;;;;;;4.03;100.00;100549.47;6103531;19;20010;-72
2023/12/16 02:02:42;;;;;;;14.23;6.45;;;;;;;4.04;100.00;100551.13;6104494;19;20013;-72
2023/12/16 02:04:42;;;;;;;18.25;7.38;;;;;;;3.99;100.00;100554.72;6104689;19;20306;-72
2023/12/16 02:06:42;;;;;;;12.75;5.95;;;;;;;4.07;100.00;100550.56;6104857;19;20022;-72
2023/12/16 02:08:44;;;;;;;11.50;6.22;;;;;;;4.07;100.00;100542.34;6104581;19;20400;-72
2023/12/16 02:10:44;;;;;;;15.43;7.00;;;;;;;4.04;100.00;100540.97;6103935;19;20014;-72
2023/12/16 02:12:45;;;;;;;15.48;6.93;;;;;;;4.05;100.00;100544.53;6105082;19;20834;-72
2023/12/16 02:14:45;;;;;;;11.10;5.50;;;;;;;4.06;100.00;100547.00;6103773;19;20022;-72
2023/12/16 02:16:46;;;;;;;11.75;6.18;;;;;;;4.10;100.00;100545.31;6104230;19;20010;-72
2023/12/16 02:18:49;;;;;;;11.98;5.60;;;;;;;4.13;100.00;100546.66;6105233;19;20253;-72
2023/12/16 02:20:49;;;;;;;17.33;6.15;;;;;;;4.17;100.00;100553.22;6104377;19;20014;-72
2023/12/16 02:22:50;;;;;;;17.30;6.78;;;;;;;4.08;100.00;100542.06;6103471;19;20006;-72
2023/12/16 02:24:52;;;;;;;13.02;6.35;;;;;;;4.13;100.00;100549.41;6103682;19;19999;-72
2023/12/16 02:26:52;;;;;;;15.18;7.18;;;;;;;4.08;100.00;100544.78;6105798;19;20003;-72
2023/12/16 02:28:53;;;;;;;10.77;6.22;;;;;;;4.04;100.00;100545.63;6103635;19;20006;-72
2023/12/16 02:30:53;;;;;;;12.98;6.40;;;;;;;4.05;100.00;100545.34;6103625;19;20006;-72
2023/12/16 02:32:55;;;;;;;13.95;6.88;;;;;;;4.00;100.00;100544.59;6104264;19;20006;-72
2023/12/16 02:34:56;;;;;;;16.80;7.32;;;;;;;4.01;100.00;100554.44;6103760;19;20015;-72
2023/12/16 02:36:56;;;;;;;10.27;6.07;;;;;;;4.00;100.00;100561.84;6103557;19;20044;-72
2023/12/16 02:38:56;;;;;;;15.05;6.50;;;;;;;3.97;100.00;100550.59;6103768;19;20471;-72
2023/12/16 02:40:56;;;;;;;13.27;6.78;;;;;;;4.11;100.00;100557.09;6102999;19;20011;-72
2023/12/16 02:42:57;;;;;;;13.10;6.57;;;;;;;4.09;100.00;100559.31;6103840;19;20007;-72
2023/12/16 02:44:57;;;;;;;16.50;7.82;;;;;;;4.09;100.00;100565.59;6103363;19;20457;-72
2023/12/16 02:46:58;;;;;;;13.73;7.15;;;;;;;4.09;100.00;100564.78;6104960;19;20039;-72
2023/12/16 02:48:58;;;;;;;16.88;6.95;;;;;;;4.12;100.00;100569.69;6097494;19;20017;-72
2023/12/16 02:50:58;;;;;;;13.43;7.40;;;;;;;4.10;100.00;100563.69;6096318;19;20035;-72
2023/12/16 02:52:59;;;;;;;14.40;7.03;;;;;;;4.12;100.00;100567.75;6103495;19;20002;-72
2023/12/16 02:55:00;;;;;;;13.73;6.80;;;;;;;4.18;100.00;100568.56;6102317;19;20392;-72
2023/12/16 02:57:00;;;;;;;17.23;7.43;;;;;;;4.18;100.00;100566.63;6103161;19;20007;-72
2023/12/16 02:59:01;;;;;;;13.35;7.60;;;;;;;4.15;100.00;100567.22;6103419;19;20002;-72
2023/12/16 03:01:01;;;;;;;15.07;7.40;;;;;;;4.19;100.00;100576.50;6102556;19;20066;-72
2023/12/16 03:03:02;;;;;;;16.15;7.65;;;;;;;4.20;100.00;100577.31;6101988;19;19995;-72
2023/12/16 03:05:03;;;;;;;13.35;6.80;;;;;;;4.17;100.00;100588.84;6102304;19;20006;-72
2023/12/16 03:07:03;;;;;;;13.50;7.32;;;;;;;4.13;100.00;100582.28;6101116;19;20389;-72
2023/12/16 03:09:04;;;;;;;16.20;7.30;;;;;;;4.16;100.00;100581.72;6101958;19;20090;-72
2023/12/16 03:11:04;;;;;;;15.48;7.70;;;;;;;4.13;100.00;100577.63;6101573;19;20017;-72
2023/12/16 03:13:05;;;;;;;14.43;7.32;;;;;;;4.03;100.00;100572.22;6101560;19;20006;-72
2023/12/16 03:15:07;;;;;;;14.68;7.22;;;;;;;4.02;100.00;100576.06;6103326;19;20673;-72
2023/12/16 03:17:08;;;;;;;;;;;;;;;4.02;100.00;100583.47;6103783;19;20007;-72
2023/12/16 03:19:08;;;;;;;16.80;6.82;;;;;;;4.08;100.00;100596.03;6102261;19;19949;-72
2023/12/16 03:21:09;;;;;;;18.13;7.72;;;;;;;4.10;100.00;100596.56;6101375;19;20007;-72
2023/12/16 03:23:09;;;;;;;12.43;6.80;;;;;;;4.08;100.00;100601.50;6102084;19;20007;-72
2023/12/16 03:25:09;;;;;;;14.55;7.40;;;;;;;4.11;100.00;100606.41;6102058;19;20007;-73
2023/12/16 03:27:10;;;;;;;16.90;7.85;;;;;;;4.09;100.00;100598.47;6102766;19;20047;-72
2023/12/16 03:29:10;;;;;;;14.10;7.25;;;;;;;4.01;100.00;100590.03;6103262;19;20014;-72
2023/12/16 03:31:10;;;;;;;17.50;7.40;;;;;;;4.02;100.00;100597.16;6100136;19;20014;-72
2023/12/16 03:33:11;;;;;;;15.05;7.13;;;;;;;3.97;100.00;100587.03;6103152;19;20010;-72
2023/12/16 03:35:11;;;;;;;15.50;8.35;;;;;;;3.92;100.00;100593.38;6101805;19;20010;-72
2023/12/16 03:37:12;;;;;;;12.93;6.85;;;;;;;3.98;100.00;100596.09;6102528;19;20039;-72
2023/12/16 03:39:13;;;;;;;12.90;7.15;;;;;;;3.98;100.00;100591.44;6102929;19;20010;-72
2023/12/16 03:41:13;;;;;;;15.02;7.75;;;;;;;3.96;100.00;100585.41;6100503;19;20017;-72
2023/12/16 03:43:17;;;;;;;11.85;7.30;;;;;;;3.92;100.00;100607.06;6101535;19;20024;-72
2023/12/16 03:45:18;;;;;;;11.57;6.47;;;;;;;3.92;100.00;100604.34;6101906;19;20023;-72
2023/12/16 03:47:18;;;;;;;14.65;8.40;;;;;;;3.91;100.00;100607.34;6102645;19;20282;-72
2023/12/16 03:49:19;;;;;;;10.70;6.28;;;;;;;3.91;100.00;100604.63;6099224;19;20015;-72
2023/12/16 03:51:23;;;;;;;10.40;6.68;;;;;;;3.90;100.00;100613.94;6087111;19;20003;-72
2023/12/16 03:53:23;;;;;;;14.40;7.18;;;;;;;3.88;100.00;100597.75;6087480;19;20086;-72
2023/12/16 03:55:23;;;;;;;14.63;7.18;;;;;;;3.84;100.00;100604.91;6087137;19;20007;-73
2023/12/16 03:57:24;;;;;;;13.93;6.93;;;;;;;3.84;100.00;100599.44;6088354;19;20002;-72
2023/12/16 03:59:24;;;;;;;19.40;7.70;;;;;;;3.84;100.00;100604.09;6087246;19;19998;-72
2023/12/16 04:01:24;;;;;;;12.70;7.65;;;;;;;3.84;100.00;100602.19;6085945;19;20475;-72
2023/12/16 04:03:25;;;;;;;14.52;7.25;;;;;;;3.82;100.00;100607.13;6086996;19;20767;-72
2023/12/16 04:05:25;;;;;;;12.65;7.07;;;;;;;3.82;100.00;100611.78;6087489;19;20451;-72
2023/12/16 04:07:25;;;;;;;15.15;7.07;;;;;;;3.83;100.00;100616.16;6086847;19;20497;-72
2023/12/16 04:09:27;;;;;;;15.25;7.35;;;;;;;3.85;100.00;100608.47;6087143;19;20007;-71
2023/12/16 04:11:27;;;;;;;10.30;6.65;;;;;;;3.89;100.00;100610.38;6085001;19;20142;-72
2023/12/16 04:13:28;;;;;;;15.82;7.43;;;;;;;3.87;100.00;100609.00;6085309;19;20003;-71
2023/12/16 04:15:28;;;;;;;14.45;7.40;;;;;;;3.92;100.00;100614.47;6086687;19;20007;-71
2023/12/16 04:17:28;;;;;;;11.95;7.88;;;;;;;3.89;100.00;100607.66;6087371;19;20003;-72
2023/12/16 04:19:29;;;;;;;12.27;7.57;;;;;;;3.90;100.00;100612.00;6083727;19;20010;-71
2023/12/16 04:21:29;;;;;;;14.27;7.07;;;;;;;3.85;100.00;100609.28;6086684;19;20062;-71
2023/12/16 04:23:30;;;;;;;14.45;6.47;;;;;;;3.82;100.00;100595.34;6087157;19;20007;-72
2023/12/16 04:25:30;;;;;;;11.02;6.90;;;;;;;3.82;100.00;100596.19;6091151;19;20013;-71
2023/12/16 04:27:30;;;;;;;13.15;6.40;;;;;;;3.81;100.00;100585.50;6093081;19;20007;-71
2023/12/16 04:29:31;;;;;;;13.95;6.93;;;;;;;3.78;100.00;100600.56;6094234;19;20016;-71
2023/12/16 04:31:31;;;;;;;12.88;7.00;;;;;;;3.77;100.00;100604.41;6092097;19;20010;-71
2023/12/16 04:33:31;;;;;;;12.80;6.47;;;;;;;3.75;100.00;100603.88;6092208;19;20954;-72
2023/12/16 04:35:32;;;;;;;10.65;6.45;;;;;;;3.73;100.00;100594.31;6092258;19;20003;-72
2023/12/16 04:37:32;;;;;;;11.43;6.35;;;;;;;3.73;100.00;100594.31;6093211;19;19999;-72
2023/12/16 04:39:32;;;;;;;10.88;5.93;;;;;;;3.69;100.00;100596.78;6092957;19;20427;-71
2023/12/16 04:41:33;;;;;;;11.23;6.43;;;;;;;3.70;100.00;100592.94;6092755;19;20342;-71
2023/12/16 04:43:33;;;;;;;11.15;5.80;;;;;;;3.74;100.00;100602.25;6093435;19;20005;-72
2023/12/16 04:45:35;;;;;;;14.68;6.00;;;;;;;3.75;100.00;100597.56;6092448;19;20014;-71
2023/12/16 04:47:37;;;;;;;12.02;6.03;;;;;;;3.77;100.00;100598.09;6092179;19;20030;-71
2023/12/16 04:49:39;;;;;;;10.88;6.07;;;;;;;3.80;100.00;100595.63;6092539;19;20011;-72
2023/12/16 04:51:39;;;;;;;11.45;5.97;;;;;;;3.75;100.00;100589.38;6100920;19;20014;-71
2023/12/16 04:53:40;;;;;;;10.73;6.20;;;;;;;3.76;100.00;100593.75;6100935;19;20289;-71
2023/12/16 04:55:40;;;;;;;12.27;6.47;;;;;;;3.80;100.00;100597.53;6099603;19;20408;-72
2023/12/16 04:57:40;;;;;;;12.23;6.30;;;;;;;3.80;100.00;100601.09;6100261;19;20006;-71
2023/12/16 04:59:41;;;;;;;16.38;6.95;;;;;;;3.83;100.00;100597.81;6098836;19;20013;-72
2023/12/16 05:01:41;;;;;;;10.95;5.85;;;;;;;3.85;100.00;100590.13;6098985;19;20231;-72
2023/12/16 05:03:41;;;;;;;12.45;6.10;;;;;;;3.81;100.00;100602.75;6099548;19;20074;-71
2023/12/16 05:05:42;;;;;;;10.15;6.32;;;;;;;3.81;100.00;100596.47;6100740;19;20467;-72
2023/12/16 05:07:42;;;;;;;13.88;6.90;;;;;;;3.80;100.00;100603.00;6100463;19;20062;-71
2023/12/16 05:09:42;;;;;;;12.15;5.60;;;;;;;3.81;100.00;100610.97;6098582;19;20007;-71
2023/12/16 05:11:43;;;;;;;9.68;6.05;;;;;;;3.79;100.00;100612.34;6100424;19;20343;-71
2023/12/16 05:13:43;;;;;;;17.30;7.88;;;;;;;3.80;100.00;100623.00;6099384;19;20390;-72
2023/12/16 05:15:44;;;;;;;15.80;6.22;;;;;;;3.77;100.00;100633.72;6100630;19;20479;-71
2023/12/16 05:17:44;;;;;;;16.10;7.13;;;;;;;3.81;100.00;100632.88;6100059;19;20011;-72
2023/12/16 05:19:44;;;;;;;12.82;6.18;;;;;;;3.85;100.00;100625.72;6099015;19;20473;-71
2023/12/16 05:21:45;;;;;;;13.57;6.78;;;;;;;3.83;100.00;100629.84;6099649;19;20006;-71
2023/12/16 05:23:45;;;;;;;13.90;6.70;;;;;;;3.78;100.00;100629.88;6101408;19;20006;-71
2023/12/16 05:25:46;;;;;;;10.27;7.00;;;;;;;3.77;100.00;100623.56;6105394;19;20474;-72
2023/12/16 05:27:46;;;;;;;14.93;6.40;;;;;;;3.75;100.00;100620.31;6105360;19;20465;-72
2023/12/16 05:29:46;;;;;;;15.75;6.57;;;;;;;3.76;100.00;100637.53;6104123;19;20026;-72
2023/12/16 05:31:46;;;;;;;14.05;6.00;;;;;;;3.74;100.00;100635.09;6105563;19;20364;-71
2023/12/16 05:33:47;;;;;;;10.45;5.85;;;;;;;3.76;100.00;100627.41;6103904;19;20474;-72
2023/12/16 05:35:48;;;;;;;12.20;6.25;;;;;;;3.75;100.00;100625.78;6104427;19;20485;-71
2023/12/16 05:37:48;;;;;;;14.25;6.53;;;;;;;3.80;100.00;100625.72;6105086;19;20708;-71
2023/12/16 05:39:48;;;;;;;22.42;8.55;;;;;;;3.78;100.00;100629.88;6104622;19;20546;-72
2023/12/16 05:41:49;;;;;;;10.50;5.70;;;;;;;3.77;100.00;100640.00;6104224;19;20085;-72
2023/12/16 05:43:49;;;;;;;10.98;5.47;;;;;;;3.81;100.00;100649.31;6105278;19;20015;-71
2023/12/16 05:45:50;;;;;;;11.70;5.35;;;;;;;3.81;100.00;100646.56;6103657;19;20045;-71
2023/12/16 05:47:50;;;;;;;11.65;5.57;;;;;;;3.77;100.00;100642.72;6104536;19;20362;-72
2023/12/16 05:49:50;;;;;;;13.63;5.53;;;;;;;3.80;100.00;100639.44;6103221;19;20007;-72
2023/12/16 05:51:51;;;;;;;8.50;5.03;;;;;;;3.81;100.00;100645.75;6105503;19;20438;-71
2023/12/16 05:53:52;;;;;;;13.43;6.05;;;;;;;3.81;100.00;100629.31;6104218;19;20007;-71
2023/12/16 05:55:52;;;;;;;14.15;6.22;;;;;;;3.80;100.00;100642.16;6104396;19;20007;-71
2023/12/16 05:57:52;;;;;;;9.48;5.00;;;;;;;3.78;100.00;100632.59;6104836;19;20003;-71
2023/12/16 05:59:53;;;;;;;11.50;5.45;;;;;;;3.80;100.00;100644.91;6103345;19;20010;-72
2023/12/16 06:01:54;;;;;;;10.85;5.57;;;;;;;3.78;100.00;100655.31;6104116;19;20527;-72
2023/12/16 06:03:54;;;;;;;12.25;5.93;;;;;;;3.80;100.00;100647.66;6103853;19;20058;-72
2023/12/16 06:05:54;;;;;;;11.35;5.70;;;;;;;3.77;100.00;100650.94;6104143;19;20986;-71
2023/12/16 06:07:55;;;;;;;13.63;5.57;;;;;;;3.75;100.00;100658.63;6104941;19;20007;-72
2023/12/16 06:09:55;;;;;;;9.57;5.45;;;;;;;3.76;100.00;100651.25;6102776;19;20014;-71
2023/12/16 06:11:56;;;;;;;12.00;5.10;;;;;;;3.75;100.00;100653.16;6105413;19;20011;-72
2023/12/16 06:13:56;;;;;;;9.00;5.68;;;;;;;3.75;100.00;100664.13;6103608;19;20033;-71
2023/12/16 06:15:57;;;;;;;11.63;5.85;;;;;;;3.79;100.00;100667.91;6103038;19;20006;-71
2023/12/16 06:17:59;;;;;;;14.18;5.85;;;;;;;3.78;100.00;100663.53;6104489;19;20006;-72
2023/12/16 06:19:59;;;;;;;8.40;5.03;;;;;;;3.81;100.00;100678.63;6103039;19;20510;-72
2023/12/16 06:22:00;;;;;;;14.20;4.80;;;;;;;3.82;100.00;100674.78;6103883;19;20034;-72
2023/12/16 06:24:00;;;;;;;12.68;5.80;;;;;;;3.83;100.00;100674.47;6104944;19;20006;-72
2023/12/16 06:26:01;;;;;;;9.02;4.72;;;;;;;3.85;100.00;100680.50;6104391;19;20033;-71
2023/12/16 06:28:01;;;;;;;9.63;5.25;;;;;;;3.83;100.00;100682.69;6103016;19;20716;-72
2023/12/16 06:30:02;;;;;;;10.85;5.35;;;;;;;3.82;100.00;100691.19;6097697;19;20629;-72
2023/12/16 06:32:02;;;;;;;13.35;5.20;;;;;;;3.82;100.00;100689.28;6097301;19;20010;-71
2023/12/16 06:34:03;;;;;;;9.70;4.93;;;;;;;3.82;100.00;100692.03;6097788;19;20010;-71
2023/12/16 06:36:03;;;;;;;13.68;5.47;;;;;;;3.81;100.00;100701.34;6094512;19;19998;-72
2023/12/16 06:38:04;;;;;;;6.47;4.55;;;;;;;3.79;100.00;100694.47;6103599;19;20070;-71
2023/12/16 06:40:05;;;;;;;11.55;5.25;;;;;;;3.77;100.00;100691.22;6101314;19;19999;-72
2023/12/16 06:42:05;;;;;;;11.88;5.22;;;;;;;3.78;100.00;100692.84;6102354;19;20014;-71
2023/12/16 06:44:06;;;;;;;9.18;5.03;;;;;;;3.76;100.00;100693.13;6101447;19;19994;-72
2023/12/16 06:46:07;;;;;;;11.65;5.20;;;;;;;3.76;100.00;100690.38;6102276;19;19998;-72
2023/12/16 06:48:07;;;;;;;9.88;5.55;;;;;;;3.76;100.00;100695.03;6102717;19;20013;-72
2023/12/16 06:50:08;;;;;;;12.90;5.45;;;;;;;3.73;100.00;100690.97;6101851;19;20386;-72
2023/12/16 06:52:08;;;;;;;8.30;4.90;;;;;;;3.71;100.00;100698.59;6102825;19;20469;-71
2023/12/16 06:54:09;;;;;;;7.38;4.57;;;;;;;3.68;100.00;100693.69;6102668;19;20007;-71
2023/12/16 06:56:09;;;;;;;8.23;5.25;;;;;;;3.67;100.00;100686.59;6101948;19;19998;-72
2023/12/16 06:58:10;;;;;;;13.27;4.93;;;;;;;3.66;100.00;100698.63;6102520;19;20001;-72
2023/12/16 07:00:11;;;;;;;11.60;5.82;;;;;;;3.65;100.00;100697.00;6101682;19;20339;-71
2023/12/16 07:02:11;;;;;;;8.60;4.93;;;;;;;3.65;100.00;100697.81;6101129;19;20333;-72
2023/12/16 07:04:12;;;;;;;9.57;5.13;;;;;;;3.66;100.00;100706.84;6102427;19;20007;-72
2023/12/16 07:06:12;;;;;;;8.73;4.47;;;;;;;3.66;100.00;100706.84;6102923;19;19999;-72
2023/12/16 07:08:13;;;;;;;10.50;4.68;;;;;;;3.71;100.00;100714.22;6102119;19;20085;-72
2023/12/16 07:10:13;;;;;;;11.25;4.88;;;;;;;3.71;100.00;100708.75;6101519;19;20232;-72
2023/12/16 07:12:13;;;;;;;8.80;4.43;;;;;;;3.72;100.00;100711.19;6102383;19;20562;-72
2023/12/16 07:14:14;;;;;;;11.27;5.00;;;;;;;3.71;100.00;100714.22;6102079;19;20007;-71
2023/12/16 07:16:14;;;;;;;7.70;4.68;;;;;;;3.70;100.00;100710.66;6100931;19;20006;-72
2023/12/16 07:18:15;;;;;;;13.70;4.88;;;;;;;3.71;100.00;100719.69;6102956;19;20291;-72
2023/12/16 07:20:15;;;;;;;8.20;4.93;;;;;;;3.73;100.00;100714.78;6101250;19;20018;-72
2023/12/16 07:22:16;;;;;;;9.85;4.40;;;;;;;3.75;100.00;100715.31;6101878;19;20349;-71
2023/12/16 07:24:16;;;;;;;8.43;4.63;;;;;;;3.75;100.00;100713.41;6101297;19;20066;-72
2023/12/16 07:26:17;;;;;;;9.52;3.95;;;;;;;3.73;100.00;100709.31;6103203;19;20007;-72
2023/12/16 07:28:18;;;;;;;9.63;4.57;;;;;;;3.75;100.00;100718.88;6101512;19;20428;-72
2023/12/16 07:30:18;;;;;;;7.43;4.05;;;;;;;3.77;100.00;100719.41;6100863;19;20013;-72
2023/12/16 07:32:19;;;;;;;7.32;4.00;;;;;;;3.78;100.00;100721.03;6102236;19;20013;-71
2023/12/16 07:34:20;;;;;;;9.50;4.18;;;;;;;3.79;100.00;100719.94;6102146;19;20326;-72
2023/12/16 07:36:21;;;;;;;11.23;4.43;;;;;;;3.80;100.00;100726.22;6100659;19;22135;-72
2023/12/16 07:38:21;;;;;;;8.35;4.53;;;;;;;3.80;100.00;100718.84;6101635;19;20758;-71
2023/12/16 07:40:22;;;;;;;9.68;4.45;;;;;;;3.83;100.00;100718.31;6100957;19;20407;-72
2023/12/16 07:42:22;;;;;;;13.07;4.90;;;;;;;3.79;100.00;100716.38;6101127;19;20006;-72
2023/12/16 07:44:22;;;;;;;9.90;4.47;;;;;;;3.82;100.00;100716.66;6101300;19;20338;-72
2023/12/16 07:46:24;;;;;;;8.60;4.60;;;;;;;3.88;100.00;100714.72;6099474;19;20447;-72
2023/12/16 07:48:24;;;;;;;11.07;5.18;;;;;;;3.88;100.00;100714.72;6101210;19;20006;-72
2023/12/16 07:50:25;;;;;;;8.63;4.07;;;;;;;3.90;100.00;100716.09;6088977;19;20095;-72
2023/12/16 07:52:26;;;;;;;11.98;4.88;;;;;;;3.89;100.00;100728.16;6097609;19;20011;-72
2023/12/16 07:54:29;;;;;;;11.48;4.50;;;;;;;3.91;100.00;100730.59;6101829;19;20015;-72
2023/12/16 07:56:29;;;;;;;8.43;4.25;;;;;;;3.89;100.00;100733.63;6100485;19;20006;-72
2023/12/16 07:58:30;;;;;;;10.80;4.75;;;;;;;3.98;100.00;100741.25;6101513;19;20094;-72
2023/12/16 08:00:30;;;;;;;7.30;4.38;;;;;;;4.02;100.00;100739.59;6100962;19;20025;-72
2023/12/16 08:02:33;;;;;;;9.82;5.35;;;;;;;4.04;100.00;100740.13;6097436;19;20094;-72
2023/12/16 08:04:33;;;;;;;14.95;6.47;;;;;;;4.03;100.00;100733.00;6101668;19;20023;-72
2023/12/16 08:06:34;;;;;;;21.75;10.35;;;;;;;4.05;100.00;100734.34;6101494;19;20002;-72
2023/12/16 08:08:37;;;;;;;12.55;6.05;;;;;;;4.16;100.00;100741.47;6101641;19;20109;-71
2023/12/16 08:10:38;;;;;;;16.90;6.95;;;;;;;4.28;100.00;100743.03;6100338;19;20568;-71
2023/12/16 08:12:38;;;;;;;12.88;5.88;;;;;;;4.27;100.00;100749.63;6101507;19;20038;-72
2023/12/16 08:14:38;;;;;;;9.43;4.85;;;;;;;4.31;100.00;100739.75;6101897;19;20023;-72
2023/12/16 08:16:39;;;;;;;12.00;6.05;;;;;;;4.30;100.00;100757.28;6101328;19;20024;-72
2023/12/16 08:18:40;;;;;;;12.13;5.85;;;;;;;4.32;100.00;100763.31;6098326;19;20006;-72
2023/12/16 08:20:40;;;;;;;13.13;6.68;;;;;;;4.25;100.00;100774.56;6100747;19;20282;-72
2023/12/16 08:22:40;;;;;;;10.50;6.40;;;;;;;4.24;100.00;100767.47;6100953;19;20335;-71
2023/12/16 08:24:41;;;;;;;45.05;19.02;;;;;;;4.20;100.00;100764.44;6100226;19;20413;-72
2023/12/16 08:26:42;;;;;;;35.85;16.65;;;;;;;4.19;100.00;100772.94;6100302;19;20038;-71
2023/12/16 08:28:42;;;;;;;24.58;11.23;;;;;;;4.18;100.00;100785.00;6099141;19;20018;-72
2023/12/16 08:30:44;;;;;;;15.88;8.20;;;;;;;4.18;100.00;100782.28;6100161;19;20481;-72
2023/12/16 08:32:44;;;;;;;11.60;6.35;;;;;;;4.16;100.00;100785.31;6101360;19;20006;-72
2023/12/16 08:34:44;;;;;;;11.50;6.75;;;;;;;4.16;100.00;100781.75;6100610;19;20081;-72
2023/12/16 08:36:46;;;;;;;9.50;6.10;;;;;;;4.14;100.00;100782.03;6101051;19;20007;-72
2023/12/16 08:38:48;;;;;;;17.70;7.35;;;;;;;4.14;100.00;100792.97;6100694;19;20095;-71
2023/12/16 08:40:48;;;;;;;8.68;6.25;;;;;;;4.11;100.00;100788.03;6098923;19;20006;-72
2023/12/16 08:42:49;;;;;;;13.02;5.93;;;;;;;4.10;100.00;100782.84;6099647;19;20397;-72
2023/12/16 08:44:49;;;;;;;9.45;5.80;;;;;;;4.07;100.00;100781.50;6101122;19;20045;-72
2023/12/16 08:46:49;;;;;;;18.13;9.82;;;;;;;4.08;100.00;100783.13;6101151;19;20007;-72
2023/12/16 08:48:50;;;;;;;15.00;7.80;;;;;;;4.09;100.00;100783.94;6102321;19;20010;-72
2023/12/16 08:50:51;;;;;;;15.65;7.47;;;;;;;4.13;100.00;100779.53;6086903;19;20010;-71
2023/12/16 08:52:51;;;;;;;18.75;7.88;;;;;;;4.12;100.00;100775.16;6087755;19;20035;-72
2023/12/16 08:54:51;;;;;;;12.52;7.50;;;;;;;4.13;100.00;100780.34;6085761;19;20021;-72
2023/12/16 08:56:52;;;;;;;9.25;6.45;;;;;;;4.16;100.00;100789.97;6086815;19;20687;-71
2023/12/16 08:58:52;;;;;;;13.52;6.90;;;;;;;4.23;100.00;100782.25;6086338;19;20463;-72
2023/12/16 09:00:53;;;;;;;11.70;6.28;;;;;;;4.26;100.00;100783.63;6085232;19;19999;-72
2023/12/16 09:02:54;;;;;;;11.45;6.80;;;;;;;4.28;100.00;100767.72;6085677;19;20023;-72
2023/12/16 09:04:54;;;;;;;12.63;5.90;;;;;;;4.30;100.00;100779.19;6087213;19;20293;-72
2023/12/16 09:06:55;;;;;;;11.35;6.45;;;;;;;4.31;100.00;100770.72;6085672;19;20011;-72
2023/12/16 09:08:57;;;;;;;17.40;8.65;;;;;;;4.35;100.00;100780.00;6086159;19;20010;-71
2023/12/16 09:10:57;;;;;;;13.60;7.30;;;;;;;4.40;100.00;100774.53;6085984;19;20035;-72
2023/12/16 09:12:58;;;;;;;17.65;8.73;;;;;;;4.37;100.00;100769.59;6088265;19;20006;-71
2023/12/16 09:14:59;;;;;;;17.25;8.05;;;;;;;4.41;100.00;100762.44;6089107;19;20556;-71